Time;durP1;ratioP1;P1;durP2;ratioP2;P2;SDS_P1;SDS_P2;PMS_P1;PMS_P2;Temp;Humidity;BMP_temperature;BMP_pressure;BME280_temperature;BME280_humidity;BME280_pressure;Samples;Min_cycle;Max_cycle;Signal;HPM_P1;HPM_P2
2023/02/21 02:16:23;;;;;;;11.88;2.58;;;;;;;5.89;100.00;100541.25;4996838;28;20058;-77
2023/02/21 02:19:23;;;;;;;14.65;2.97;;;;;;;5.95;100.00;100553.16;4993741;28;20446;-77
2023/02/21 02:22:07;;;;;;;16.65;3.58;;;;;;;5.89;100.00;100549.19;4997398;28;20043;-78
2023/02/21 02:24:38;;;;;;;24.25;4.03;;;;;;;5.95;100.00;100547.00;4996658;28;20049;-77
2023/02/21 02:27:19;;;;;;;12.18;2.88;;;;;;;5.98;100.00;100538.81;4984269;28;20038;-77
2023/02/21 02:30:07;;;;;;;19.27;4.22;;;;;;;5.91;100.00;100530.53;4991654;28;20061;-77
2023/02/21 02:32:40;;;;;;;20.50;3.45;;;;;;;5.78;100.00;100541.38;4996242;28;20032;-78
2023/02/21 02:35:16;;;;;;;18.83;3.75;;;;;;;5.83;100.00;100549.78;5001166;28;20038;-78
2023/02/21 02:38:09;;;;;;;11.57;2.72;;;;;;;5.86;100.00;100544.19;4995741;28;20173;-78
2023/02/21 02:40:43;;;;;;;21.33;3.72;;;;;;;5.89;100.00;100554.50;4987037;28;20212;-77
2023/02/21 02:43:19;;;;;;;18.02;3.25;;;;;;;5.83;100.00;100560.38;4989117;28;20974;-77
2023/02/21 02:45:47;;;;;;;11.20;3.22;;;;;;;5.87;100.00;100564.41;4991711;28;20041;-77
2023/02/21 02:48:19;;;;;;;18.70;2.90;;;;;;;5.83;100.00;100559.50;4979282;28;20096;-77
2023/02/21 02:50:49;;;;;;;16.27;1.92;;;;;;;5.89;100.00;100558.97;4999493;28;20505;-77
2023/02/21 02:53:18;;;;;;;12.82;3.08;;;;;;;5.84;100.00;100562.03;4994931;28;20062;-78
2023/02/21 02:55:51;;;;;;;21.73;3.90;;;;;;;5.84;100.00;100559.38;4971983;28;20045;-77
2023/02/21 02:58:21;;;;;;;14.10;3.35;;;;;;;5.86;100.00;100560.09;4993354;28;20039;-77
2023/02/21 03:00:59;;;;;;;13.68;3.03;;;;;;;5.87;100.00;100545.84;4979226;28;20030;-77
2023/02/21 03:03:48;;;;;;;17.92;3.53;;;;;;;5.85;100.00;100555.78;4977568;28;20491;-77
2023/02/21 03:06:45;;;;;;;15.10;3.38;;;;;;;5.83;100.00;100549.78;4991908;28;20038;-76
2023/02/21 03:09:25;;;;;;;18.10;3.47;;;;;;;5.85;100.00;100547.81;4982414;28;20026;-77
2023/02/21 03:12:13;;;;;;;17.23;3.40;;;;;;;5.84;100.00;100535.53;4997071;28;20049;-77
2023/02/21 03:15:02;;;;;;;23.00;3.50;;;;;;;5.86;100.00;100536.22;4971829;28;20054;-77
2023/02/21 03:17:31;;;;;;;22.20;4.72;;;;;;;5.83;100.00;100514.47;4962266;28;20464;-78
2023/02/21 03:20:00;;;;;;;18.05;3.40;;;;;;;5.75;100.00;100507.22;4996543;28;20455;-79
2023/02/21 03:22:30;;;;;;;12.23;3.28;;;;;;;5.75;100.00;100519.63;4970766;28;20040;-77
2023/02/21 03:24:59;;;;;;;15.40;3.42;;;;;;;5.71;100.00;100511.09;4975491;28;20034;-78
2023/02/21 03:27:26;;;;;;;18.98;3.83;;;;;;;5.67;100.00;100517.66;4987718;28;20041;-78
2023/02/21 03:30:01;;;;;;;18.67;2.60;;;;;;;5.71;100.00;100511.97;4974675;28;20048;-78
2023/02/21 03:35:00;;;;;;;21.60;4.20;;;;;;;5.66;100.00;100519.44;4978359;28;20390;-77
2023/02/21 03:37:36;;;;;;;13.75;3.78;;;;;;;5.66;100.00;100515.97;4978440;28;20360;-79
2023/02/21 03:40:05;;;;;;;24.58;3.97;;;;;;;5.63;100.00;100519.72;4998596;28;20107;-77
2023/02/21 03:42:32;;;;;;;19.80;3.80;;;;;;;5.68;100.00;100521.97;4978987;28;20169;-77
2023/02/21 03:44:57;;;;;;;14.73;3.60;;;;;;;5.63;100.00;100516.25;4990946;28;20581;-79
2023/02/21 03:47:23;;;;;;;27.08;3.72;;;;;;;5.60;100.00;100511.25;4995996;28;20357;-76
2023/02/21 03:49:48;;;;;;;27.67;3.30;;;;;;;5.62;100.00;100514.56;4979641;28;20034;-76
2023/02/21 03:52:15;;;;;;;;;;;;;;;5.66;100.00;100522.09;4995499;28;20046;-79
2023/02/21 03:54:41;;;;;;;26.52;3.35;;;;;;;5.66;100.00;100508.03;4996648;28;19936;-79
2023/02/21 03:57:09;;;;;;;14.55;3.38;;;;;;;5.64;100.00;100510.84;4978655;28;20022;-78
2023/02/21 03:59:40;;;;;;;22.92;4.95;;;;;;;5.55;100.00;100509.00;4994906;28;20398;-79
2023/02/21 04:02:07;;;;;;;18.42;2.80;;;;;;;5.46;100.00;100508.00;4994869;28;20056;-78
2023/02/21 04:04:33;;;;;;;28.52;5.18;;;;;;;5.61;100.00;100516.38;4995628;28;20476;-77
2023/02/21 04:07:08;;;;;;;26.75;5.35;;;;;;;5.60;100.00;100521.84;4990545;28;20033;-78
2023/02/21 04:09:34;;;;;;;25.25;3.90;;;;;;;5.57;100.00;100512.34;4962915;28;20034;-78
2023/02/21 04:11:59;;;;;;;22.80;4.73;;;;;;;5.65;100.00;100509.00;4989878;28;20521;-78
2023/02/21 04:14:26;;;;;;;14.95;3.38;;;;;;;5.67;100.00;100501.78;4994347;28;20289;-79
2023/02/21 04:16:52;;;;;;;27.50;3.97;;;;;;;5.63;100.00;100495.91;4975156;28;20387;-80
2023/02/21 04:19:17;;;;;;;20.33;4.60;;;;;;;5.64;100.00;100483.50;4999890;28;20042;-78
2023/02/21 04:21:43;;;;;;;27.00;4.50;;;;;;;5.65;100.00;100493.13;4980431;28;20092;-76
2023/02/21 04:24:09;;;;;;;29.33;5.82;;;;;;;5.62;100.00;100480.13;4994016;28;20053;-77
2023/02/21 04:26:34;;;;;;;24.83;3.20;;;;;;;5.58;100.00;100484.06;4998844;28;20039;-78
2023/02/21 04:29:01;;;;;;;24.97;4.17;;;;;;;5.60;100.00;100480.28;4994558;28;20034;-78
2023/02/21 04:31:27;;;;;;;23.10;4.45;;;;;;;5.55;100.00;100455.16;4999243;28;20288;-80
2023/02/21 04:33:52;;;;;;;17.40;3.55;;;;;;;5.55;100.00;100465.75;4984560;28;20014;-79
2023/02/21 04:36:21;;;;;;;23.25;4.75;;;;;;;5.63;100.00;100469.41;4990728;28;20038;-78
2023/02/21 04:38:49;;;;;;;18.23;4.20;;;;;;;5.56;100.00;100470.09;4978148;28;20041;-76
2023/02/21 04:41:14;;;;;;;;;;;;;;;5.60;100.00;100450.31;4980184;28;20030;-78
2023/02/21 04:43:42;;;;;;;25.77;3.53;;;;;;;5.57;100.00;100464.69;4982499;28;19917;-80
2023/02/21 04:46:07;;;;;;;24.33;4.68;;;;;;;5.52;100.00;100461.59;4998379;28;20022;-80
2023/02/21 04:48:33;;;;;;;19.58;2.80;;;;;;;5.40;100.00;100444.16;4976411;28;20569;-76
2023/02/21 04:50:58;;;;;;;26.67;5.63;;;;;;;5.53;100.00;100459.78;4994471;28;20045;-76
2023/02/21 04:53:23;;;;;;;25.90;4.97;;;;;;;5.59;100.00;100461.88;4995437;28;20037;-77
2023/02/21 04:55:49;;;;;;;31.33;3.93;;;;;;;5.53;100.00;100450.03;4995063;28;20038;-79
2023/02/21 04:58:16;;;;;;;24.67;3.67;;;;;;;5.50;100.00;100456.44;4979786;28;20065;-78
2023/02/21 05:00:41;;;;;;;36.63;5.82;;;;;;;5.34;100.00;100448.19;4998554;28;20038;-79
2023/02/21 05:03:06;;;;;;;23.77;4.50;;;;;;;5.44;100.00;100462.28;5005309;28;20157;-78
2023/02/21 05:05:32;;;;;;;21.30;4.97;;;;;;;5.42;100.00;100455.44;4984439;28;20034;-80
2023/02/21 05:07:57;;;;;;;33.03;4.30;;;;;;;5.47;100.00;100480.53;4996178;28;20034;-78
2023/02/21 05:10:22;;;;;;;27.83;5.97;;;;;;;5.45;100.00;100476.34;4997762;28;20577;-78
2023/02/21 05:12:48;;;;;;;33.17;5.60;;;;;;;5.41;100.00;100470.50;4994864;28;20037;-79
2023/02/21 05:15:14;;;;;;;26.13;3.53;;;;;;;5.50;100.00;100488.22;4997628;28;20034;-76
2023/02/21 05:17:39;;;;;;;;;;;;;;;5.47;100.00;100496.41;4992910;28;20289;-78
2023/02/21 05:20:10;;;;;;;22.65;4.13;;;;;;;5.47;100.00;100485.81;4997740;28;19916;-78
2023/02/21 05:22:39;;;;;;;27.58;5.30;;;;;;;5.47;100.00;100485.00;4992135;28;20101;-77
2023/02/21 05:25:12;;;;;;;29.40;4.47;;;;;;;5.44;100.00;100491.41;4973898;28;20041;-79
2023/02/21 05:27:38;;;;;;;21.35;3.95;;;;;;;5.48;100.00;100500.75;4998093;28;20152;-76
2023/02/21 05:30:04;;;;;;;22.17;4.67;;;;;;;5.52;100.00;100479.28;4998786;28;20038;-76
2023/02/21 05:32:29;;;;;;;25.55;4.95;;;;;;;5.52;100.00;100482.78;4974252;28;20490;-80
2023/02/21 05:34:54;;;;;;;28.50;5.07;;;;;;;5.51;100.00;100478.47;4976310;28;20045;-80
2023/02/21 05:37:20;;;;;;;22.00;4.90;;;;;;;5.46;100.00;100481.50;4996920;28;20084;-80
2023/02/21 05:39:46;;;;;;;24.85;5.53;;;;;;;5.50;100.00;100485.56;4975892;28;20076;-79
2023/02/21 05:42:12;;;;;;;;;;;;;;;5.52;100.00;100489.88;4997371;28;20046;-78
2023/02/21 05:44:37;;;;;;;32.03;5.45;;;;;;;5.43;100.00;100465.03;4990060;28;20759;-79
2023/02/21 05:47:02;;;;;;;28.77;5.83;;;;;;;5.37;100.00;100484.97;4998720;28;20069;-79
2023/02/21 05:49:28;;;;;;;37.60;5.90;;;;;;;5.34;100.00;100493.19;5001169;28;20133;-76
2023/02/21 05:51:53;;;;;;;40.77;6.83;;;;;;;5.39;100.00;100493.63;4975561;28;20327;-76
2023/02/21 05:54:20;;;;;;;21.83;3.63;;;;;;;5.30;100.00;100478.53;4996623;28;20081;-78
2023/02/21 05:56:48;;;;;;;37.33;6.03;;;;;;;5.22;100.00;100483.66;4975924;28;20044;-78
2023/02/21 05:59:15;;;;;;;26.02;5.28;;;;;;;5.13;100.00;100503.84;4993464;28;20038;-79
2023/02/21 06:01:41;;;;;;;39.80;6.85;;;;;;;5.15;100.00;100512.50;5001377;28;20073;-78
2023/02/21 06:04:09;;;;;;;30.67;5.80;;;;;;;5.07;100.00;100517.59;5010692;28;20038;-77
2023/02/21 06:06:34;;;;;;;30.92;4.28;;;;;;;5.12;100.00;100527.78;5011066;28;20445;-77
2023/02/21 06:09:00;;;;;;;29.85;4.97;;;;;;;5.08;100.00;100532.53;5026669;28;20117;-77
2023/02/21 06:11:29;;;;;;;31.15;5.78;;;;;;;5.01;100.00;100541.94;5010848;28;20455;-78
2023/02/21 06:13:57;;;;;;;26.20;6.00;;;;;;;5.06;100.00;100555.63;4996008;28;20029;-78
2023/02/21 06:16:23;;;;;;;32.30;6.10;;;;;;;5.02;100.00;100555.03;4976313;28;20064;-78
2023/02/21 06:18:53;;;;;;;;;;;;;;;4.96;100.00;100558.19;4995127;28;20654;-77
2023/02/21 06:21:19;;;;;;;35.50;6.10;;;;;;;4.89;100.00;100570.28;5006546;28;20287;-77
2023/02/21 06:23:44;;;;;;;31.15;5.53;;;;;;;4.93;100.00;100592.84;4982738;28;20029;-76
2023/02/21 06:26:09;;;;;;;33.70;6.57;;;;;;;4.89;100.00;100594.06;4992640;28;20057;-76
2023/02/21 06:28:35;;;;;;;32.63;5.07;;;;;;;4.89;100.00;100599.38;4993464;28;20032;-78
2023/02/21 06:31:02;;;;;;;32.87;5.57;;;;;;;4.98;100.00;100601.25;4992955;28;20065;-77
2023/02/21 06:33:28;;;;;;;35.85;6.78;;;;;;;4.99;100.00;100602.09;4976776;28;20061;-78
2023/02/21 06:35:53;;;;;;;41.20;7.33;;;;;;;4.95;100.00;100579.50;4992524;28;20057;-80
2023/02/21 06:38:18;;;;;;;41.17;7.87;;;;;;;4.96;100.00;100566.13;5020720;28;20301;-77
2023/02/21 06:40:44;;;;;;;29.10;5.37;;;;;;;5.10;100.00;100575.53;5001281;28;20053;-78
2023/02/21 06:43:09;;;;;;;39.63;5.90;;;;;;;5.04;100.00;100557.56;5009427;28;20034;-77
2023/02/21 06:45:35;;;;;;;29.07;4.67;;;;;;;5.06;100.00;100542.41;5008620;28;20537;-77
2023/02/21 06:48:00;;;;;;;27.58;4.57;;;;;;;5.15;100.00;100554.84;5010134;28;20022;-77
2023/02/21 06:50:26;;;;;;;22.25;4.55;;;;;;;5.22;100.00;100549.81;5008804;28;20080;-77
2023/02/21 06:52:52;;;;;;;30.15;4.78;;;;;;;5.23;100.00;100540.94;5008825;28;20053;-77
2023/02/21 06:55:21;;;;;;;26.43;4.73;;;;;;;5.25;100.00;100539.81;5022243;23;20045;-75
2023/02/21 06:57:47;;;;;;;38.85;6.43;;;;;;;5.24;100.00;100534.66;5005430;28;20409;-75
2023/02/21 07:00:14;;;;;;;36.33;5.03;;;;;;;5.30;100.00;100534.13;5005722;28;20140;-74
2023/02/21 07:02:39;;;;;;;43.72;6.25;;;;;;;5.37;100.00;100537.91;4992330;28;20043;-76
2023/02/21 07:05:05;;;;;;;27.80;4.87;;;;;;;5.50;100.00;100513.84;5005047;28;20045;-75
2023/02/21 07:07:31;;;;;;;25.33;5.35;;;;;;;5.47;100.00;100480.53;5020238;28;20207;-74
2023/02/21 07:09:56;;;;;;;24.27;4.93;;;;;;;5.62;100.00;100488.06;5006025;28;20121;-75
2023/02/21 07:12:22;;;;;;;35.40;5.43;;;;;;;5.70;100.00;100472.34;4987817;28;20279;-73
2023/02/21 07:14:47;;;;;;;28.90;5.07;;;;;;;5.73;100.00;100453.53;4987984;28;20042;-73
2023/02/21 07:17:12;;;;;;;35.13;5.77;;;;;;;5.83;100.00;100454.38;5005947;28;20129;-74
2023/02/21 07:19:39;;;;;;;31.97;5.50;;;;;;;6.03;100.00;100470.31;5006275;28;20081;-76
2023/02/21 07:22:04;;;;;;;31.13;5.43;;;;;;;6.13;100.00;100437.53;5005859;28;20371;-74
2023/02/21 07:24:30;;;;;;;39.37;5.07;;;;;;;6.18;100.00;100415.91;5004119;28;20478;-73
2023/02/21 07:26:55;;;;;;;31.17;5.47;;;;;;;6.25;100.00;100395.81;5008227;28;20284;-73
2023/02/21 07:29:21;;;;;;;32.30;5.18;;;;;;;6.31;100.00;100371.34;5020417;28;20041;-74
2023/02/21 07:31:46;;;;;;;37.97;5.33;;;;;;;6.45;100.00;100366.56;5005201;28;20046;-73
2023/02/21 07:34:11;;;;;;;31.23;6.00;;;;;;;6.54;100.00;100363.03;5005454;28;20044;-73
2023/02/21 07:36:37;;;;;;;23.87;4.73;;;;;;;6.39;100.00;100322.06;5013749;28;20375;-73
2023/02/21 07:39:03;;;;;;;37.78;6.38;;;;;;;6.32;100.00;100320.00;5005683;28;20456;-76
2023/02/21 07:41:28;;;;;;;27.92;4.97;;;;;;;6.51;100.00;100350.09;5005110;28;20457;-74
2023/02/21 07:43:54;;;;;;;33.33;6.87;;;;;;;6.70;100.00;100357.94;5008023;28;20049;-73
2023/02/21 07:46:19;;;;;;;30.13;5.38;;;;;;;6.76;100.00;100333.47;4987678;28;20034;-74
2023/02/21 07:48:45;;;;;;;28.67;5.87;;;;;;;6.92;100.00;100332.81;5003854;28;20025;-73
2023/02/21 07:51:10;;;;;;;31.20;5.43;;;;;;;6.86;100.00;100269.75;5004553;28;20367;-74
2023/02/21 07:53:36;;;;;;;39.20;7.10;;;;;;;6.97;100.00;100266.03;5005740;28;20025;-74
2023/02/21 07:56:03;;;;;;;31.17;6.53;;;;;;;6.73;100.00;100240.91;5004318;28;20283;-72
2023/02/21 07:58:28;;;;;;;35.50;5.88;;;;;;;6.74;100.00;100252.34;5004914;28;20044;-75
2023/02/21 08:00:54;;;;;;;34.00;5.97;;;;;;;6.58;100.00;100226.50;5004705;28;20026;-73
2023/02/21 08:03:20;;;;;;;32.22;6.00;;;;;;;6.67;100.00;100262.75;5004627;28;20069;-73
2023/02/21 08:05:46;;;;;;;;;;;;;;;6.75;100.00;100275.25;5004614;28;20080;-73
2023/02/21 08:08:13;;;;;;;19.73;4.28;;;;;;;7.03;100.00;100285.84;5004514;28;19921;-73
2023/02/21 08:10:38;;;;;;;28.85;5.65;;;;;;;7.09;100.00;100240.09;5004386;28;20364;-74
2023/02/21 08:13:05;;;;;;;39.60;6.23;;;;;;;7.43;100.00;100256.16;5004706;28;20084;-73
2023/02/21 08:15:31;;;;;;;43.20;6.60;;;;;;;7.53;100.00;100171.88;5002835;28;20049;-75
2023/02/21 08:17:56;;;;;;;30.37;6.40;;;;;;;7.83;100.00;100165.25;5004663;28;20030;-74
2023/02/21 08:20:21;;;;;;;30.30;5.80;;;;;;;8.21;100.00;100115.19;5002865;28;20041;-74
2023/02/21 08:22:47;;;;;;;36.70;7.03;;;;;;;8.38;100.00;99999.03;5002946;28;20049;-73
2023/02/21 08:25:14;;;;;;;23.83;6.20;;;;;;;8.36;100.00;99868.06;4986183;28;20541;-73
2023/02/21 08:27:41;;;;;;;27.77;5.70;;;;;;;8.63;100.00;99905.91;5004502;28;20068;-73
2023/02/21 08:30:08;;;;;;;34.95;6.30;;;;;;;8.63;100.00;99786.19;5004210;28;20136;-73
2023/02/21 08:32:34;;;;;;;33.70;5.68;;;;;;;8.80;100.00;99785.13;5006200;28;20049;-74
2023/02/21 08:35:00;;;;;;;28.42;5.65;;;;;;;9.19;100.00;99770.88;5003846;28;20026;-74
2023/02/21 08:37:31;;;;;;;35.47;5.18;;;;;;;9.22;100.00;99656.00;5004002;28;20109;-73
2023/02/21 08:39:57;;;;;;;24.60;4.47;;;;;;;8.35;100.00;99503.84;5007538;28;20097;-73
2023/02/21 08:42:23;;;;;;;28.55;4.38;;;;;;;7.85;100.00;99583.09;5003392;28;20578;-76
2023/02/21 08:44:48;;;;;;;33.97;5.03;;;;;;;7.77;100.00;99753.16;5004984;28;20044;-76
2023/02/21 08:47:15;;;;;;;34.37;6.77;;;;;;;7.31;100.00;99812.13;5004321;28;20030;-73
2023/02/21 08:49:47;;;;;;;38.22;6.45;;;;;;;7.47;100.00;100007.00;5004525;28;20108;-72
2023/02/21 08:52:15;;;;;;;32.60;7.13;;;;;;;7.51;100.00;100059.63;4986084;28;20985;-75
2023/02/21 08:54:41;;;;;;;33.72;7.22;;;;;;;7.66;100.00;100067.03;5000835;28;20031;-72
2023/02/21 08:57:06;;;;;;;31.77;6.57;;;;;;;8.15;100.00;100142.44;5002983;28;20045;-74
2023/02/21 08:59:33;;;;;;;26.03;6.47;;;;;;;8.41;100.00;100045.78;5004525;28;20111;-72
2023/02/21 09:02:00;;;;;;;26.88;5.53;;;;;;;8.96;100.00;99935.09;5003529;28;20269;-74
2023/02/21 09:04:29;;;;;;;33.30;6.10;;;;;;;9.33;100.00;99811.09;5007890;28;20073;-72
2023/02/21 09:06:55;;;;;;;37.85;6.22;;;;;;;9.94;100.00;99662.59;5018981;28;20120;-72
2023/02/21 09:09:21;;;;;;;33.90;6.75;;;;;;;9.91;100.00;99457.69;5006562;28;20045;-73
2023/02/21 09:11:48;;;;;;;29.85;5.20;;;;;;;9.80;100.00;99371.03;5006231;28;20046;-73
2023/02/21 09:14:14;;;;;;;28.63;5.22;;;;;;;9.59;100.00;99267.94;5008063;28;20069;-72
2023/02/21 09:16:41;;;;;;;23.80;5.28;;;;;;;9.91;100.00;99309.22;5005697;28;20044;-75
2023/02/21 09:19:08;;;;;;;27.88;5.60;;;;;;;9.41;100.00;99248.94;4989886;28;20037;-74
2023/02/21 09:21:33;;;;;;;;;;;;;;;9.03;100.00;99316.56;5003407;28;20430;-72
2023/02/21 09:24:01;;;;;;;24.95;5.47;;;;;;;8.54;100.00;99346.44;5007368;28;20012;-74
2023/02/21 09:26:30;;;;;;;35.88;6.57;;;;;;;8.45;100.00;99456.59;5006887;28;20041;-73
2023/02/21 09:28:56;;;;;;;42.30;6.40;;;;;;;8.18;100.00;99517.28;5005088;28;20041;-73
2023/02/21 09:31:22;;;;;;;30.50;5.72;;;;;;;7.93;100.00;99596.31;5006885;28;20041;-74
2023/02/21 09:33:47;;;;;;;33.27;5.60;;;;;;;7.89;100.00;99685.41;5007254;28;20061;-74
2023/02/21 09:36:12;;;;;;;35.47;5.43;;;;;;;7.76;100.00;99739.06;5007062;28;20049;-71
2023/02/21 09:38:41;;;;;;;30.90;7.13;;;;;;;7.83;100.00;99829.56;5005725;28;20281;-71
2023/02/21 09:41:12;;;;;;;30.55;4.65;;;;;;;7.68;100.00;99794.88;5005761;28;20041;-74
2023/02/21 09:43:42;;;;;;;31.40;6.00;;;;;;;7.70;100.00;99871.72;5007057;28;20038;-71
2023/02/21 09:46:10;;;;;;;41.80;6.65;;;;;;;7.77;100.00;99923.22;5003922;28;20600;-74
2023/02/21 09:48:36;;;;;;;29.70;5.10;;;;;;;7.89;100.00;99913.09;5002469;28;20038;-74
2023/02/21 09:51:06;;;;;;;39.25;5.28;;;;;;;7.90;100.00;99902.31;5005095;28;20384;-73
2023/02/21 09:53:44;;;;;;;26.33;4.78;;;;;;;8.02;100.00;99937.38;5004488;28;20509;-75
2023/02/21 09:56:17;;;;;;;31.10;5.38;;;;;;;8.30;100.00;99943.19;5020056;28;20044;-74
2023/02/21 09:58:43;;;;;;;33.60;7.72;;;;;;;8.74;100.00;100020.00;4994121;28;20247;-74
2023/02/21 10:01:19;;;;;;;52.50;7.55;;;;;;;9.24;100.00;99989.56;5004033;28;20052;-74
2023/02/21 10:03:53;;;;;;;38.83;7.38;;;;;;;9.13;100.00;99731.66;5005783;28;20462;-74
2023/02/21 10:07:00;;;;;;;31.55;5.95;;;;;;;9.22;100.00;99666.66;4996680;28;20278;-75
2023/02/21 10:09:35;;;;;;;30.80;5.93;;;;;;;9.21;100.00;99648.22;5002063;28;20073;-75
2023/02/21 10:12:11;;;;;;;33.17;5.70;;;;;;;8.88;100.00;99505.56;4950338;28;20295;-71
2023/02/21 10:14:51;;;;;;;47.97;5.28;;;;;;;8.87;100.00;99524.38;4974397;28;20277;-74
2023/02/21 10:17:24;;;;;;;28.85;5.95;;;;;;;8.81;100.00;99546.41;5006142;28;20030;-74
2023/02/21 10:19:53;;;;;;;25.98;6.32;;;;;;;8.88;100.00;99589.94;5006127;28;20463;-75
2023/02/21 10:22:25;;;;;;;38.28;6.03;;;;;;;8.65;100.00;99539.38;5020782;28;20029;-75
2023/02/21 10:24:51;;;;;;;23.38;4.95;;;;;;;8.51;100.00;99501.09;5006212;28;20049;-73
2023/02/21 10:27:21;;;;;;;;;;;;;;;8.58;100.00;99595.13;5005104;28;20045;-75
2023/02/21 10:30:09;;;;;;;28.23;4.78;;;;;;;8.59;100.00;99627.88;5003596;28;20219;-75
2023/02/21 10:32:36;;;;;;;34.55;6.55;;;;;;;8.53;100.00;99533.66;4991430;28;20128;-75
2023/02/21 10:35:02;;;;;;;33.08;6.93;;;;;;;8.34;100.00;99438.38;5004320;28;20069;-75
2023/02/21 10:37:40;;;;;;;34.33;6.25;;;;;;;8.53;100.00;99487.63;5006103;28;20089;-74
2023/02/21 10:40:29;;;;;;;29.80;5.28;;;;;;;8.55;100.00;99512.22;5004266;28;20092;-75
2023/02/21 10:43:00;;;;;;;30.88;6.57;;;;;;;8.68;100.00;99515.06;4995608;28;20111;-74
2023/02/21 10:45:33;;;;;;;27.85;5.55;;;;;;;8.73;100.00;99535.81;5005394;28;20411;-74
2023/02/21 10:48:08;;;;;;;24.30;4.38;;;;;;;8.75;100.00;99494.72;5004887;28;20476;-74
2023/02/21 10:50:42;;;;;;;37.97;6.28;;;;;;;8.72;100.00;99457.84;5005540;28;20045;-75
2023/02/21 10:53:20;;;;;;;25.20;5.82;;;;;;;8.71;100.00;99533.34;5021205;28;20064;-73
2023/02/21 10:56:06;;;;;;;38.65;5.53;;;;;;;8.65;100.00;99489.66;5005012;28;20044;-75
2023/02/21 10:58:31;;;;;;;29.25;6.80;;;;;;;8.60;100.00;99417.53;5001219;28;20165;-74
2023/02/21 11:01:11;;;;;;;31.27;6.07;;;;;;;8.41;100.00;99341.78;5005497;28;20610;-74
2023/02/21 11:03:43;;;;;;;30.77;5.53;;;;;;;8.63;100.00;99451.75;4994214;28;20136;-74
2023/02/21 11:06:27;;;;;;;30.05;5.20;;;;;;;8.60;100.00;99453.97;5003912;28;20052;-74
2023/02/21 11:08:53;;;;;;;30.00;5.07;;;;;;;8.92;100.00;99640.94;5004305;28;20156;-72
2023/02/21 11:12:09;;;;;;;27.58;6.10;;;;;;;8.95;100.00;99558.09;5005437;28;20096;-75
2023/02/21 11:14:35;;;;;;;27.25;6.13;;;;;;;8.82;100.00;99462.88;4988032;28;20056;-75
2023/02/21 11:17:15;;;;;;;30.43;5.30;;;;;;;8.75;100.00;99424.72;5005190;28;20030;-75
2023/02/21 11:19:45;;;;;;;24.02;5.85;;;;;;;8.72;100.00;99420.56;5001809;28;20038;-75
2023/02/21 11:22:11;;;;;;;27.23;6.53;;;;;;;8.88;100.00;99415.06;4987403;28;20064;-74
2023/02/21 11:24:50;;;;;;;25.10;5.68;;;;;;;8.76;100.00;99347.38;5001004;28;20026;-75
2023/02/21 11:27:16;;;;;;;31.52;5.45;;;;;;;8.95;100.00;99500.34;4988928;28;20041;-74
2023/02/21 11:29:46;;;;;;;22.73;4.63;;;;;;;9.19;100.00;99523.22;5005046;28;20580;-74
2023/02/21 11:32:26;;;;;;;26.67;5.30;;;;;;;9.27;100.00;99499.16;4986700;28;20087;-73
2023/02/21 11:35:01;;;;;;;31.45;5.60;;;;;;;9.55;100.00;99591.72;5004793;28;20033;-74
2023/02/21 11:37:27;;;;;;;23.27;5.65;;;;;;;9.49;100.00;99465.41;5020237;28;20037;-75
2023/02/21 11:39:53;;;;;;;;;;;;;;;9.64;100.00;99462.72;5002045;28;20498;-72
2023/02/21 11:42:33;;;;;;;;;;;;;;;9.58;100.00;99330.25;5004170;28;19914;-72
2023/02/21 11:45:20;;;;;;;20.00;4.82;;;;;;;9.53;100.00;99234.09;5018212;28;20279;-72
2023/02/21 11:48:01;;;;;;;25.58;5.32;;;;;;;9.71;100.00;99279.72;5003656;28;20379;-75
2023/02/21 11:50:33;;;;;;;24.45;4.28;;;;;;;9.62;100.00;99158.34;5003909;28;20049;-73
2023/02/21 11:53:21;;;;;;;27.50;4.82;;;;;;;9.42;100.00;99149.38;5003036;28;20056;-74
2023/02/21 11:55:58;;;;;;;21.25;4.20;;;;;;;9.36;100.00;99174.91;5007174;28;20041;-74
2023/02/21 11:58:38;;;;;;;27.65;6.50;;;;;;;9.43;100.00;99230.91;5004829;28;20045;-74
2023/02/21 12:01:13;;;;;;;27.27;4.75;;;;;;;9.53;100.00;99140.84;5003257;28;20529;-75
2023/02/21 12:03:57;;;;;;;21.77;4.40;;;;;;;9.48;100.00;99047.34;5004500;28;20040;-74
2023/02/21 12:06:57;;;;;;;26.98;5.15;;;;;;;9.38;100.00;98935.03;5014964;28;20427;-73
2023/02/21 12:09:47;;;;;;;22.23;4.80;;;;;;;9.29;100.00;98974.31;4962616;28;20073;-71
2023/02/21 12:12:18;;;;;;;23.08;4.57;;;;;;;9.28;100.00;98978.00;4962506;28;20043;-73
2023/02/21 12:15:00;;;;;;;30.70;5.57;;;;;;;9.39;100.00;98956.16;4962696;28;20071;-74
2023/02/21 12:17:37;;;;;;;26.80;4.35;;;;;;;9.41;100.00;99004.72;4947538;28;20042;-74
2023/02/21 12:20:24;;;;;;;37.95;5.32;;;;;;;9.26;100.00;99009.34;4947681;28;20894;-72
2023/02/21 12:23:12;;;;;;;24.95;5.20;;;;;;;9.28;100.00;98992.16;4946508;28;20035;-75
2023/02/21 12:26:22;;;;;;;29.60;5.30;;;;;;;9.22;100.00;98851.78;4962840;28;20424;-74
2023/02/21 12:28:53;;;;;;;31.30;5.75;;;;;;;9.61;100.00;99043.94;4944117;28;20105;-71
2023/02/21 12:31:24;;;;;;;24.90;5.43;;;;;;;9.55;100.00;98821.75;4946618;28;20574;-74
2023/02/21 12:34:15;;;;;;;31.48;5.75;;;;;;;9.71;100.00;98812.56;4963115;28;20496;-74
2023/02/21 12:36:59;;;;;;;27.35;6.55;;;;;;;9.55;100.00;98776.47;4946654;28;20145;-74
2023/02/21 12:40:00;;;;;;;28.42;5.18;;;;;;;9.31;100.00;98655.38;4946593;28;20078;-75
2023/02/21 12:42:48;;;;;;;24.98;5.05;;;;;;;9.46;99.86;98653.34;4911878;28;20602;-75
2023/02/21 12:45:19;;;;;;;23.27;5.25;;;;;;;9.63;100.00;98752.31;4955698;28;20046;-74
2023/02/21 12:47:50;;;;;;;26.27;4.78;;;;;;;9.55;99.95;98746.34;5004696;28;20145;-74
2023/02/21 12:50:32;;;;;;;22.33;5.32;;;;;;;9.51;98.47;98626.91;5007059;28;20038;-75
2023/02/21 12:53:09;;;;;;;31.20;5.05;;;;;;;9.65;98.89;98718.28;4994965;28;20061;-72
2023/02/21 12:58:15;;;;;;;27.35;5.68;;;;;;;9.81;98.19;98695.72;5042784;23;20053;-85
2023/02/21 13:00:46;;;;;;;29.52;6.35;;;;;;;9.69;97.64;98646.72;5002545;28;20133;-88
2023/02/21 13:03:35;;;;;;;30.90;5.88;;;;;;;9.57;97.20;98576.47;5024373;28;20069;-86
2023/02/21 13:06:19;;;;;;;27.52;5.85;;;;;;;9.45;96.86;98549.66;4996118;28;20065;-86
2023/02/21 13:09:18;;;;;;;43.70;6.72;;;;;;;9.36;97.28;98564.22;4982620;28;20041;-86
2023/02/21 13:11:59;;;;;;;23.90;5.28;;;;;;;9.59;98.26;98747.59;4998687;28;20446;-85
2023/02/21 13:14:34;;;;;;;27.65;6.00;;;;;;;9.68;97.07;98677.91;4992533;28;20037;-85
2023/02/21 13:16:59;;;;;;;20.98;5.43;;;;;;;10.08;97.63;98842.31;5014586;28;20034;-86
2023/02/21 13:19:33;;;;;;;30.87;6.70;;;;;;;10.03;97.20;98792.25;4997654;28;20026;-84
2023/02/21 13:26:04;;;;;;;27.25;5.20;;;;;;;9.47;96.24;98548.41;4994007;28;20081;-85
2023/02/21 13:28:35;;;;;;;29.38;4.43;;;;;;;9.52;96.99;98670.31;4939002;28;20703;-84
2023/02/21 13:31:03;;;;;;;30.55;5.28;;;;;;;9.59;97.73;98772.38;4957975;28;20039;-85
2023/02/21 13:33:42;;;;;;;21.77;5.60;;;;;;;9.48;96.58;98626.47;4967261;28;20734;-87
2023/02/21 13:36:20;;;;;;;25.00;5.20;;;;;;;9.43;97.80;98748.81;4967951;28;20062;-85
2023/02/21 13:38:55;;;;;;;24.80;4.78;;;;;;;9.44;97.72;98755.78;4945869;28;20050;-85
2023/02/21 13:41:25;;;;;;;21.50;5.75;;;;;;;9.32;96.66;98614.44;4974327;28;20042;-86
2023/02/21 13:43:52;;;;;;;24.40;5.50;;;;;;;9.26;95.70;98562.81;4942887;28;20834;-84
2023/02/21 13:46:43;;;;;;;26.55;5.85;;;;;;;9.44;95.84;98607.44;4942410;28;20043;-86
2023/02/21 13:49:41;;;;;;;37.58;5.65;;;;;;;9.42;94.55;98510.94;4974768;28;20493;-85
2023/02/21 13:52:18;;;;;;;26.80;5.18;;;;;;;9.49;94.09;98497.63;4966792;28;20178;-84
2023/02/21 13:55:16;;;;;;;30.35;7.60;;;;;;;9.50;93.92;98452.13;4943885;28;20035;-85
2023/02/21 13:57:59;;;;;;;27.30;5.68;;;;;;;9.69;94.23;98570.31;4992469;28;20466;-85
2023/02/21 14:00:24;;;;;;;24.33;4.50;;;;;;;10.23;93.47;98687.41;4986766;28;20056;-85
2023/02/21 14:03:18;;;;;;;32.67;4.43;;;;;;;10.67;92.27;98686.63;5024027;28;20027;-85
2023/02/21 14:05:43;;;;;;;21.77;4.80;;;;;;;10.72;90.05;98417.28;4931186;28;20047;-85
2023/02/21 14:08:14;;;;;;;28.47;4.50;;;;;;;10.78;90.40;98503.66;4954242;28;20049;-83